Aurora, Ohio
Current Conditions -  °F | °C
As of 7:00 PM on Wednesday 26 Nov 2014 (Local Time) from KPOV Reporting Station
Overcast Overcast  
Wind Chill: 34°   Ceiling: 3500
Heat Index: 34°   Visibility: 10mi
Dew Point: 24°   Wind: 0mph
Humidity: 67%   Direction: NA
Pressure: 30.01"   Gusts: NA
Location:  41.31°N, 81.34°W
Report Text: KPOV 270000Z AUTO 00000KT 10SM OVC035 01/M04 A3001 RMK AO2 T00111045 10033 20011
Loading
Personal Weather Stations






























Interactive Weather Map New forecast layout! Learn more

10-Day Weather Forecast

Advertisements
Track Severe Weather on mobile